createdAt,value
2019-02-11T00:01:34.809Z,100131.45
2019-02-11T00:04:06.642Z,100131.45
2019-02-11T00:06:38.154Z,100132.91
2019-02-11T00:09:10.377Z,100122.98
2019-02-11T00:11:41.667Z,100122.98
2019-02-11T00:14:13.190Z,100117.14
2019-02-11T00:16:44.567Z,100114.47
2019-02-11T00:19:16.044Z,100135.95
2019-02-11T00:21:47.899Z,100134.65
2019-02-11T00:24:19.196Z,100142.67
2019-02-11T00:26:50.927Z,100142.67
2019-02-11T00:29:22.380Z,100135.81
2019-02-11T00:31:54.236Z,100136.11
2019-02-11T00:34:25.683Z,100135.47
2019-02-11T00:36:57.576Z,100124.37
2019-02-11T00:39:29.124Z,100124.37
2019-02-11T00:42:00.530Z,100122.98
2019-02-11T00:44:32.134Z,100130.36
2019-02-11T00:47:03.630Z,100136.73
2019-02-11T00:49:34.927Z,100139.23
2019-02-11T00:52:06.841Z,100139.23
2019-02-11T00:54:38.536Z,100137.84
2019-02-11T00:57:09.969Z,100134.83
2019-02-11T00:59:41.562Z,100134.83
2019-02-11T01:02:12.907Z,100139.41
2019-02-11T01:04:44.381Z,100147.58
2019-02-11T01:07:15.520Z,100149.14
2019-02-11T01:09:48.303Z,100149.14
2019-02-11T01:12:19.943Z,100156.16
2019-02-11T01:14:51.455Z,100182.27
2019-02-11T01:17:22.732Z,100182.27
2019-02-11T01:19:54.395Z,100193.41
2019-02-11T01:22:27.164Z,100203.94
2019-02-11T01:24:58.624Z,100203.94
2019-02-11T01:27:30.010Z,100204.99
2019-02-11T01:30:01.715Z,100212.89
2019-02-11T01:32:32.861Z,100212.89
2019-02-11T01:35:04.350Z,100230.94
2019-02-11T01:37:35.961Z,100230.94
2019-02-11T01:40:09.872Z,100230.57
2019-02-11T01:42:41.220Z,100235.31
2019-02-11T01:45:14.254Z,100242.50
2019-02-11T01:47:45.743Z,100244.05
2019-02-11T01:50:17.408Z,100256.14
2019-02-11T01:52:48.619Z,100252.17
2019-02-11T01:55:19.956Z,100252.75
2019-02-11T01:57:51.244Z,100249.74
2019-02-11T02:00:22.734Z,100254.72
2019-02-11T02:02:54.028Z,100260.23
2019-02-11T02:05:25.652Z,100279.52
2019-02-11T02:07:57.000Z,100275.28
2019-02-11T02:10:28.420Z,100281.51
2019-02-11T02:12:59.705Z,100281.51
2019-02-11T02:15:30.945Z,100298.05
2019-02-11T02:18:02.290Z,100302.32
2019-02-11T02:20:33.539Z,100297.63
2019-02-11T02:23:06.892Z,100296.55
2019-02-11T02:25:38.890Z,100286.95
2019-02-11T02:28:10.692Z,100278.08
2019-02-11T02:30:42.155Z,100286.16
2019-02-11T02:33:13.413Z,100286.16
2019-02-11T02:35:44.508Z,100299.73
2019-02-11T02:38:16.904Z,100292.23
2019-02-11T02:40:51.628Z,100292.23
2019-02-11T02:43:22.847Z,100290.83
2019-02-11T02:45:53.939Z,100290.83
2019-02-11T02:48:25.177Z,100292.98
2019-02-11T02:50:56.184Z,100307.00
2019-02-11T02:53:27.305Z,100320.35
2019-02-11T02:55:58.535Z,100320.35
2019-02-11T02:58:29.502Z,100322.63
2019-02-11T03:01:00.551Z,100325.41
2019-02-11T03:03:31.957Z,100322.56
2019-02-11T03:06:03.071Z,100322.56
2019-02-11T03:08:34.279Z,100314.78
2019-02-11T03:11:05.342Z,100309.87
2019-02-11T03:13:36.509Z,100337.72
2019-02-11T03:16:07.635Z,100337.72
2019-02-11T03:18:38.619Z,100342.48
2019-02-11T03:21:10.256Z,100349.97
2019-02-11T03:23:41.253Z,100310.91
2019-02-11T03:26:12.212Z,100375.23
2019-02-11T03:28:43.250Z,100377.26
2019-02-11T03:31:14.414Z,100379.22
2019-02-11T03:33:45.488Z,100375.63
2019-02-11T03:36:16.561Z,100379.14
2019-02-11T03:38:49.184Z,100389.80
2019-02-11T03:41:20.667Z,100379.10
2019-02-11T03:43:51.962Z,100379.10
2019-02-11T03:46:23.277Z,100373.06
2019-02-11T03:49:01.604Z,100379.07
2019-02-11T03:51:32.666Z,100375.29
2019-02-11T03:54:09.566Z,100375.29
2019-02-11T03:56:40.634Z,100368.25
2019-02-11T03:59:11.635Z,100378.93
2019-02-11T04:01:47.038Z,100378.93
2019-02-11T04:04:20.058Z,100400.23
2019-02-11T04:06:53.034Z,100386.06
2019-02-11T04:09:26.019Z,100376.94
2019-02-11T04:11:57.121Z,100395.59
2019-02-11T04:14:28.071Z,100399.41
2019-02-11T04:16:59.025Z,100405.82
2019-02-11T04:19:30.261Z,100405.82
2019-02-11T04:22:08.891Z,100405.92
2019-02-11T04:24:40.246Z,100412.02
2019-02-11T04:27:11.698Z,100412.02
2019-02-11T04:29:43.138Z,100398.94
2019-02-11T04:32:14.591Z,100398.94
2019-02-11T04:34:46.000Z,100405.81
2019-02-11T04:37:17.667Z,100404.04
2019-02-11T04:39:49.052Z,100403.04
2019-02-11T04:42:20.560Z,100381.02
2019-02-11T04:44:52.921Z,100382.58
2019-02-11T04:47:27.539Z,100385.23
2019-02-11T04:49:58.838Z,100385.23
2019-02-11T04:52:30.155Z,100397.94
2019-02-11T04:55:01.207Z,100396.47
2019-02-11T04:57:32.663Z,100391.22
2019-02-11T05:00:04.286Z,100383.05
2019-02-11T05:02:36.044Z,100383.05
2019-02-11T05:05:08.014Z,100381.39
2019-02-11T05:07:39.390Z,100381.39
2019-02-11T05:10:12.079Z,100377.62
2019-02-11T05:12:43.605Z,100386.50
2019-02-11T05:15:14.717Z,100390.25
2019-02-11T05:17:46.385Z,100394.77
2019-02-11T05:20:17.849Z,100388.50
2019-02-11T05:22:49.279Z,100386.01
2019-02-11T05:25:20.457Z,100385.67
2019-02-11T05:27:52.169Z,100379.25
2019-02-11T05:30:23.463Z,100373.91
2019-02-11T05:32:54.720Z,100364.50
2019-02-11T05:35:26.049Z,100364.50
2019-02-11T05:37:57.367Z,100372.83
2019-02-11T05:40:28.548Z,100380.31
2019-02-11T05:42:59.905Z,100365.55
2019-02-11T05:45:30.907Z,100367.52
2019-02-11T05:48:02.362Z,100365.95
2019-02-11T05:50:33.529Z,100365.95
2019-02-11T05:53:04.964Z,100353.52
2019-02-11T05:55:36.594Z,100347.23
2019-02-11T05:58:08.144Z,100341.03
2019-02-11T06:00:39.467Z,100330.70
2019-02-11T06:03:11.454Z,100330.70
2019-02-11T06:05:43.348Z,100327.41
2019-02-11T06:08:14.609Z,100310.31
2019-02-11T06:10:46.317Z,100310.31
2019-02-11T06:13:17.819Z,100300.14
2019-02-11T06:15:49.424Z,100303.44
2019-02-11T06:18:20.573Z,100302.28
2019-02-11T06:20:52.221Z,100302.28
2019-02-11T06:23:23.503Z,100282.78
2019-02-11T06:25:55.351Z,100279.57
2019-02-11T06:28:27.095Z,100275.88
2019-02-11T06:30:58.304Z,100275.88
2019-02-11T06:33:30.180Z,100250.73
2019-02-11T06:36:11.448Z,100250.73
2019-02-11T06:38:35.069Z,100238.75
2019-02-11T06:41:06.210Z,100238.75
2019-02-11T06:43:38.796Z,100243.22
2019-02-11T06:46:10.097Z,100242.14
2019-02-11T06:48:41.683Z,100242.14
2019-02-11T06:51:13.311Z,100232.54
2019-02-11T06:53:45.044Z,100246.60
2019-02-11T06:56:16.337Z,100243.57
2019-02-11T06:58:48.152Z,100243.57
2019-02-11T07:01:19.595Z,100251.08
2019-02-11T07:03:51.473Z,100247.03
2019-02-11T07:06:22.920Z,100247.70
2019-02-11T07:08:54.120Z,100247.70
2019-02-11T07:11:25.618Z,100230.03
2019-02-11T07:13:57.043Z,100229.92
2019-02-11T07:16:28.466Z,100226.42
2019-02-11T07:19:00.088Z,100212.57
2019-02-11T07:21:31.471Z,100212.57
2019-02-11T07:24:02.960Z,100211.34
2019-02-11T07:26:34.263Z,100212.47
2019-02-11T07:29:05.632Z,100212.47
2019-02-11T07:31:37.118Z,100197.17
2019-02-11T07:34:08.391Z,100185.50
2019-02-11T07:36:39.825Z,100189.23
2019-02-11T07:39:11.778Z,100189.23
2019-02-11T07:42:02.375Z,100177.61
2019-02-11T07:44:39.052Z,100162.39
2019-02-11T07:47:10.600Z,100162.39
2019-02-11T07:49:42.125Z,100161.33
2019-02-11T07:52:13.909Z,100156.51
2019-02-11T07:54:45.439Z,100156.51
2019-02-11T07:57:18.446Z,100144.41
2019-02-11T07:59:49.575Z,100148.12
2019-02-11T08:02:21.226Z,100148.12
2019-02-11T08:04:52.707Z,100143.20
2019-02-11T08:07:24.059Z,100134.31
2019-02-11T08:09:55.326Z,100134.31
2019-02-11T08:12:26.800Z,100132.93
2019-02-11T08:14:58.035Z,100113.16
2019-02-11T08:17:29.707Z,100111.58
2019-02-11T08:20:01.149Z,100111.58
2019-02-11T08:22:32.737Z,100111.73
2019-02-11T08:25:05.564Z,100105.31
2019-02-11T08:27:37.036Z,100101.74
2019-02-11T08:30:08.790Z,100098.23
2019-02-11T08:32:39.969Z,100098.23
2019-02-11T08:35:13.625Z,100095.25
2019-02-11T08:37:46.502Z,100090.89
2019-02-11T08:40:18.327Z,100080.77
2019-02-11T08:42:50.607Z,100072.05
2019-02-11T08:45:22.760Z,100073.27
2019-02-11T08:47:56.432Z,100058.80
2019-02-11T08:50:28.184Z,100058.80
2019-02-11T08:52:59.692Z,100060.89
2019-02-11T08:55:31.199Z,100066.30
2019-02-11T08:58:02.752Z,100058.53
2019-02-11T09:00:34.151Z,100063.46
2019-02-11T09:03:05.471Z,100058.88
2019-02-11T09:05:36.623Z,100058.88
2019-02-11T09:08:08.372Z,100058.19
2019-02-11T09:10:39.884Z,100057.12
2019-02-11T09:13:11.442Z,100064.88
2019-02-11T09:15:42.630Z,100064.88
2019-02-11T09:18:14.354Z,100056.66
2019-02-11T09:20:45.889Z,100056.81
2019-02-11T09:23:17.825Z,100056.81
2019-02-11T09:25:50.133Z,100050.16
2019-02-11T09:28:21.345Z,100042.77
2019-02-11T09:30:52.558Z,100048.20
2019-02-11T09:33:23.536Z,100048.20
2019-02-11T09:35:54.626Z,100047.66
2019-02-11T09:38:26.396Z,100045.17
2019-02-11T09:40:57.529Z,100054.80
2019-02-11T09:43:28.713Z,100062.97
2019-02-11T09:46:03.845Z,100061.21
2019-02-11T09:48:35.608Z,100061.21
2019-02-11T09:51:07.385Z,100059.80
2019-02-11T09:53:39.490Z,100051.41
2019-02-11T09:56:13.155Z,100045.75
2019-02-11T09:58:44.108Z,100043.03
2019-02-11T10:01:15.224Z,100046.96
2019-02-11T10:03:46.423Z,100043.69
2019-02-11T10:06:17.394Z,100044.56
2019-02-11T10:08:48.467Z,100044.56
2019-02-11T10:11:19.534Z,100050.27
2019-02-11T10:13:50.594Z,100036.27
2019-02-11T10:16:22.330Z,100036.27
2019-02-11T10:18:53.737Z,100042.42
2019-02-11T10:21:24.950Z,100042.42
2019-02-11T10:23:57.038Z,100040.73
2019-02-11T10:26:28.694Z,100051.34
2019-02-11T10:28:59.827Z,100051.58
2019-02-11T10:31:31.043Z,100051.58
2019-02-11T10:34:02.505Z,100056.06
2019-02-11T10:36:33.741Z,100047.02
2019-02-11T10:39:06.223Z,100050.55
2019-02-11T10:41:39.014Z,100050.42
2019-02-11T10:44:10.643Z,100050.42
2019-02-11T10:46:46.757Z,100046.89
2019-02-11T10:49:17.875Z,100046.89
2019-02-11T10:51:49.295Z,100041.78
2019-02-11T10:54:20.472Z,100038.01
2019-02-11T10:56:52.159Z,100031.98
2019-02-11T10:59:24.407Z,100031.98
2019-02-11T11:01:55.419Z,100023.62
2019-02-11T11:04:26.719Z,100016.39
2019-02-11T11:06:58.539Z,100020.08
2019-02-11T11:09:31.335Z,100022.06
2019-02-11T11:12:02.568Z,100020.42
2019-02-11T11:14:35.043Z,100014.06
2019-02-11T11:17:08.229Z,100014.06
2019-02-11T11:19:41.558Z,100021.00
2019-02-11T11:22:12.798Z,100012.29
2019-02-11T11:24:43.995Z,100010.98
2019-02-11T11:27:15.261Z,100010.98
2019-02-11T11:29:46.393Z,100008.53
2019-02-11T11:32:19.494Z,100010.13
2019-02-11T11:34:50.518Z,100012.63
2019-02-11T11:37:21.675Z,100003.23
2019-02-11T11:39:52.751Z,100012.91
2019-02-11T11:42:24.000Z,100021.90
2019-02-11T11:44:55.201Z,100023.78
2019-02-11T11:47:28.133Z,100023.78
2019-02-11T11:49:59.322Z,100026.55
2019-02-11T11:52:30.697Z,100024.13
2019-02-11T11:55:02.085Z,100024.13
2019-02-11T11:57:34.704Z,100026.16
2019-02-11T12:00:12.277Z,100027.86
2019-02-11T12:02:59.569Z,100027.86
2019-02-11T12:05:17.668Z,100024.45
2019-02-11T12:07:48.927Z,100021.98
2019-02-11T12:10:20.322Z,100021.98
2019-02-11T12:12:51.785Z,100024.45
2019-02-11T12:15:24.447Z,100033.95
2019-02-11T12:17:55.860Z,100033.95
2019-02-11T12:20:27.425Z,100023.30
2019-02-11T12:22:58.818Z,100024.73
2019-02-11T12:25:30.548Z,100026.19
2019-02-11T12:28:02.393Z,100026.19
2019-02-11T12:30:34.236Z,100030.72
2019-02-11T12:33:05.670Z,100025.37
2019-02-11T12:35:37.162Z,100025.37
2019-02-11T12:38:09.000Z,100035.25
2019-02-11T12:40:40.717Z,100035.25
2019-02-11T12:43:11.918Z,100038.45
2019-02-11T12:45:43.696Z,100038.20
2019-02-11T12:48:16.481Z,100038.20
2019-02-11T12:50:49.355Z,100041.36
2019-02-11T12:53:20.483Z,100042.39
2019-02-11T12:55:51.731Z,100047.63
2019-02-11T12:58:22.946Z,100051.17
2019-02-11T13:00:55.382Z,100060.96
2019-02-11T13:03:27.003Z,100060.96
2019-02-11T13:05:59.323Z,100058.63
2019-02-11T13:08:30.419Z,100067.50
2019-02-11T13:11:01.742Z,100067.50
2019-02-11T13:13:33.099Z,100069.47
2019-02-11T13:16:05.323Z,100080.98
2019-02-11T13:18:39.450Z,100074.82
2019-02-11T13:21:09.374Z,100074.82
2019-02-11T13:23:40.845Z,100074.14
2019-02-11T13:26:13.500Z,100074.14
2019-02-11T13:28:45.016Z,100078.01
2019-02-11T13:31:16.864Z,100084.44
2019-02-11T13:33:48.328Z,100077.11
2019-02-11T13:36:19.747Z,100078.76
2019-02-11T13:38:51.392Z,100081.84
2019-02-11T13:41:22.868Z,100078.97
2019-02-11T13:43:54.411Z,100077.97
2019-02-11T13:46:25.933Z,100070.65
2019-02-11T13:48:57.387Z,100070.65
2019-02-11T13:51:29.238Z,100080.34
2019-02-11T13:54:00.852Z,100091.41
2019-02-11T13:56:33.117Z,100091.41
2019-02-11T13:59:05.172Z,100119.00
2019-02-11T14:01:37.601Z,100116.80
2019-02-11T14:04:11.267Z,100116.80
2019-02-11T14:06:43.017Z,100115.44
2019-02-11T14:09:15.259Z,100109.36
2019-02-11T14:11:47.030Z,100105.55
2019-02-11T14:14:20.009Z,100105.55
2019-02-11T14:16:51.647Z,100123.14
2019-02-11T14:19:23.161Z,100123.14
2019-02-11T14:21:54.498Z,100121.44
2019-02-11T14:24:26.413Z,100131.48
2019-02-11T14:26:57.777Z,100129.63
2019-02-11T14:29:29.431Z,100147.85
2019-02-11T14:32:01.579Z,100147.85
2019-02-11T14:34:33.662Z,100162.31
2019-02-11T14:37:05.380Z,100169.23
2019-02-11T14:39:36.905Z,100169.23
2019-02-11T14:42:08.713Z,100182.70
2019-02-11T14:44:40.154Z,100182.70
2019-02-11T14:47:11.737Z,100175.81
2019-02-11T14:49:43.021Z,100179.90
2019-02-11T14:52:14.577Z,100182.25
2019-02-11T14:54:47.750Z,100176.66
2019-02-11T14:57:20.629Z,100167.97
2019-02-11T14:59:51.880Z,100160.88
2019-02-11T15:02:23.593Z,100175.59
2019-02-11T15:04:55.412Z,100179.20
2019-02-11T15:07:27.256Z,100184.94
2019-02-11T15:09:58.908Z,100184.94
2019-02-11T15:12:30.577Z,100184.55
2019-02-11T15:15:01.785Z,100192.92
2019-02-11T15:17:33.247Z,100196.14
2019-02-11T15:20:04.524Z,100197.09
2019-02-11T15:22:36.241Z,100197.09
2019-02-11T15:25:08.889Z,100206.98
2019-02-11T15:27:40.506Z,100207.47
2019-02-11T15:30:15.969Z,100207.47
2019-02-11T15:32:47.968Z,100218.27
2019-02-11T15:35:20.006Z,100225.80
2019-02-11T15:37:51.271Z,100225.80
2019-02-11T15:40:23.551Z,100226.55
2019-02-11T15:42:55.132Z,100224.80
2019-02-11T15:45:28.262Z,100224.80
2019-02-11T15:48:00.755Z,100218.66
2019-02-11T15:50:32.426Z,100216.25
2019-02-11T15:53:04.083Z,100215.59
2019-02-11T15:55:35.674Z,100219.23
2019-02-11T15:58:07.232Z,100219.23
2019-02-11T16:00:39.678Z,100207.61
2019-02-11T16:03:11.184Z,100202.92
2019-02-11T16:05:49.516Z,100202.55
2019-02-11T16:08:17.735Z,100202.55
2019-02-11T16:10:49.493Z,100197.91
2019-02-11T16:13:20.799Z,100198.52
2019-02-11T16:15:52.755Z,100198.52
2019-02-11T16:18:24.062Z,100200.97
2019-02-11T16:20:55.713Z,100190.42
2019-02-11T16:23:27.583Z,100193.83
2019-02-11T16:25:59.514Z,100196.11
2019-02-11T16:28:31.009Z,100198.52
2019-02-11T16:31:02.449Z,100192.93
2019-02-11T16:33:33.931Z,100202.27
2019-02-11T16:36:05.767Z,100195.88
2019-02-11T16:38:37.166Z,100191.31
2019-02-11T16:41:08.677Z,100189.97
2019-02-11T16:43:40.125Z,100189.97
2019-02-11T16:46:11.428Z,100194.31
2019-02-11T16:48:42.908Z,100194.31
2019-02-11T16:51:14.633Z,100192.73
2019-02-11T16:53:45.994Z,100192.73
2019-02-11T16:56:17.656Z,100192.76
2019-02-11T16:58:49.203Z,100202.91
2019-02-11T17:01:20.687Z,100202.91
2019-02-11T17:03:52.027Z,100199.21
2019-02-11T17:06:23.442Z,100201.50
2019-02-11T17:08:55.982Z,100201.50
2019-02-11T17:11:27.113Z,100185.16
2019-02-11T17:13:58.461Z,100183.12
2019-02-11T17:16:32.674Z,100183.12
2019-02-11T17:19:09.436Z,100175.33
2019-02-11T17:21:37.414Z,100175.33
2019-02-11T17:24:08.808Z,100184.80
2019-02-11T17:26:40.397Z,100184.80
2019-02-11T17:29:12.020Z,100177.09
2019-02-11T17:31:43.515Z,100177.09
2019-02-11T17:34:15.105Z,100183.48
2019-02-11T17:36:47.751Z,100183.48
2019-02-11T17:39:19.152Z,100181.00
2019-02-11T17:41:50.465Z,100172.97
2019-02-11T17:44:22.292Z,100172.97
2019-02-11T17:46:53.656Z,100184.47
2019-02-11T17:49:25.116Z,100184.40
2019-02-11T17:51:56.794Z,100184.40
2019-02-11T17:54:28.330Z,100186.55
2019-02-11T17:56:59.890Z,100195.16
2019-02-11T17:59:31.356Z,100195.16
2019-02-11T18:02:06.287Z,100188.69
2019-02-11T18:04:37.999Z,100188.69
2019-02-11T18:07:09.696Z,100189.47
2019-02-11T18:09:44.527Z,100185.90
2019-02-11T18:12:16.649Z,100186.45
2019-02-11T18:14:48.139Z,100197.73
2019-02-11T18:17:19.803Z,100197.33
2019-02-11T18:19:51.454Z,100197.33
2019-02-11T18:22:24.211Z,100193.23
2019-02-11T18:24:55.697Z,100201.05
2019-02-11T18:27:27.327Z,100201.98
2019-02-11T18:29:58.881Z,100190.25
2019-02-11T18:32:30.387Z,100193.67
2019-02-11T18:35:01.910Z,100203.06
2019-02-11T18:37:33.333Z,100194.91
2019-02-11T18:40:04.832Z,100194.91
2019-02-11T18:42:36.445Z,100199.15
2019-02-11T18:45:09.879Z,100199.15
2019-02-11T18:47:41.420Z,100192.63
2019-02-11T18:50:15.513Z,100182.03
2019-02-11T18:52:46.956Z,100182.03
2019-02-11T18:55:18.698Z,100188.91
2019-02-11T18:57:50.410Z,100184.52
2019-02-11T19:00:21.935Z,100168.03
2019-02-11T19:02:54.085Z,100176.02
2019-02-11T19:05:25.440Z,100165.80
2019-02-11T19:07:57.473Z,100165.80
2019-02-11T19:10:28.991Z,100143.31
2019-02-11T19:13:00.506Z,100143.31
2019-02-11T19:15:32.088Z,100156.75
2019-02-11T19:18:03.565Z,100159.36
2019-02-11T19:20:34.888Z,100163.45
2019-02-11T19:23:06.393Z,100163.45
2019-02-11T19:25:37.743Z,100139.56
2019-02-11T19:28:09.179Z,100123.83
2019-02-11T19:30:40.578Z,100119.84
2019-02-11T19:33:12.184Z,100119.84
2019-02-11T19:35:43.569Z,100139.23
2019-02-11T19:38:15.080Z,100151.92
2019-02-11T19:40:46.432Z,100151.55
2019-02-11T19:43:18.082Z,100147.91
2019-02-11T19:45:49.398Z,100147.91
2019-02-11T19:48:21.090Z,100133.98
2019-02-11T19:50:52.572Z,100136.85
2019-02-11T19:53:24.242Z,100136.85
2019-02-11T19:55:55.551Z,100129.11
2019-02-11T19:58:27.149Z,100129.11
2019-02-11T20:00:58.572Z,100137.03
2019-02-11T20:03:30.270Z,100128.41
2019-02-11T20:06:03.577Z,100123.34
2019-02-11T20:08:35.072Z,100123.34
2019-02-11T20:11:06.856Z,100118.69
2019-02-11T20:13:38.452Z,100123.49
2019-02-11T20:16:09.817Z,100123.49
2019-02-11T20:18:42.131Z,100121.38
2019-02-11T20:21:13.562Z,100113.56
2019-02-11T20:23:45.076Z,100105.89
2019-02-11T20:26:16.367Z,100094.37
2019-02-11T20:28:48.167Z,100094.37
2019-02-11T20:31:19.492Z,100085.55
2019-02-11T20:33:50.835Z,100088.90
2019-02-11T20:36:22.356Z,100084.99
2019-02-11T20:38:53.958Z,100079.27
2019-02-11T20:41:25.434Z,100079.27
2019-02-11T20:43:56.965Z,100076.77
2019-02-11T20:46:28.951Z,100083.13
2019-02-11T20:49:00.406Z,100084.36
2019-02-11T20:51:31.765Z,100084.36
2019-02-11T20:54:03.222Z,100077.33
2019-02-11T20:56:38.124Z,100071.50
2019-02-11T20:59:09.744Z,100060.56
2019-02-11T21:01:41.366Z,100060.56
2019-02-11T21:04:13.849Z,100056.91
2019-02-11T21:06:45.350Z,100048.70
2019-02-11T21:09:16.896Z,100047.14
2019-02-11T21:11:49.471Z,100046.69
2019-02-11T21:14:20.722Z,100046.69
2019-02-11T21:16:52.079Z,100039.73
2019-02-11T21:19:23.358Z,100030.14
2019-02-11T21:21:56.547Z,100021.47
2019-02-11T21:24:27.968Z,100023.21
2019-02-11T21:27:00.384Z,100023.21
2019-02-11T21:29:31.960Z,100008.53
2019-02-11T21:32:03.518Z,100018.91
2019-02-11T21:34:34.689Z,100017.53
2019-02-11T21:37:06.547Z,100021.48
2019-02-11T21:39:37.847Z,100031.30
2019-02-11T21:42:09.271Z,100031.30
2019-02-11T21:44:40.775Z,100019.21
2019-02-11T21:47:12.210Z,100014.78
2019-02-11T21:49:43.563Z,100015.90
2019-02-11T21:52:15.037Z,100005.05
2019-02-11T21:54:46.260Z,100017.65
2019-02-11T21:57:18.031Z,100029.40
2019-02-11T21:59:51.334Z,100026.68
2019-02-11T22:02:23.047Z,100026.68
2019-02-11T22:04:54.777Z,100031.03
2019-02-11T22:07:26.317Z,100036.13
2019-02-11T22:09:57.842Z,100047.69
2019-02-11T22:12:29.161Z,100043.78
2019-02-11T22:15:01.252Z,100041.11
2019-02-11T22:17:32.590Z,100036.53
2019-02-11T22:20:04.989Z,100036.53
2019-02-11T22:22:36.752Z,100040.36
2019-02-11T22:25:08.935Z,100040.36
2019-02-11T22:27:40.603Z,100042.59
2019-02-11T22:30:17.334Z,100042.59
2019-02-11T22:32:49.795Z,100053.79
2019-02-11T22:35:21.959Z,100050.45
2019-02-11T22:37:53.722Z,100050.45
2019-02-11T22:40:24.964Z,100054.53
2019-02-11T22:42:56.453Z,100062.86
2019-02-11T22:45:28.322Z,100062.86
2019-02-11T22:48:00.653Z,100062.22
2019-02-11T22:50:32.029Z,100046.50
2019-02-11T22:53:03.395Z,100042.26
2019-02-11T22:55:34.963Z,100042.26
2019-02-11T22:58:07.771Z,100035.30
2019-02-11T23:00:47.702Z,100023.00
2019-02-11T23:03:20.422Z,100023.11
2019-02-11T23:05:52.707Z,100025.62
2019-02-11T23:08:24.074Z,100027.70
2019-02-11T23:10:55.450Z,100023.44
2019-02-11T23:13:27.010Z,100022.95
2019-02-11T23:15:58.829Z,100022.95
2019-02-11T23:18:30.283Z,100032.48
2019-02-11T23:21:01.582Z,100040.13
2019-02-11T23:23:32.966Z,100044.28
2019-02-11T23:26:04.337Z,100035.41
2019-02-11T23:28:36.022Z,100035.41
2019-02-11T23:31:07.653Z,100026.20
2019-02-11T23:33:39.099Z,100027.27
2019-02-11T23:36:10.783Z,100029.61
2019-02-11T23:38:42.066Z,100035.81
2019-02-11T23:41:13.395Z,100019.81
2019-02-11T23:43:44.949Z,100019.81
2019-02-11T23:46:19.357Z,100027.47
2019-02-11T23:48:50.800Z,100022.75
2019-02-11T23:51:22.440Z,100027.76
2019-02-11T23:53:53.901Z,100027.76
2019-02-11T23:56:27.070Z,100032.89
2019-02-11T23:58:58.357Z,100036.17
